Terminal Aerodrome Forecast
Issued by NWS

Current Version | Previous Version | Text Only | Print | Product List | Glossary On
Versions: 1 2 3 4 5 6 7 8 9 10 11 12 13
448
FTUS45 KABQ 250526
TAFSAF
TAF
KSAF 250526Z 2506/2606 35007KT P6SM SKC
     FM251700 24009KT P6SM SKC
     FM252000 24014G24KT P6SM SKC
     FM260200 36006KT P6SM SKC=

USA.gov is the U.S. government's official web portal to all federal, state and local government web resources and services.